Time;durP1;ratioP1;P1;durP2;ratioP2;P2;SDS_P1;SDS_P2;PMS_P1;PMS_P2;Temp;Humidity;BMP_temperature;BMP_pressure;BME280_temperature;BME280_humidity;BME280_pressure;Samples;Min_cycle;Max_cycle;Signal;HPM_P1;HPM_P2
2022/01/02 00:03:01;;;;;;;10.75;5.47;;;8.70;96.80;;;;;;10047066;28;20469;-65
2022/01/02 00:07:59;;;;;;;11.57;5.72;;;8.70;96.90;;;;;;10047890;28;20029;-64
2022/01/02 00:12:55;;;;;;;11.77;6.65;;;8.70;96.80;;;;;;10049242;28;20323;-66
2022/01/02 00:17:49;;;;;;;9.80;5.68;;;8.70;96.80;;;;;;10028535;28;20033;-66
2022/01/02 00:22:41;;;;;;;12.45;6.80;;;8.60;96.80;;;;;;10043813;28;20030;-66
2022/01/02 00:27:35;;;;;;;14.93;7.53;;;8.60;97.00;;;;;;10060125;28;20096;-63
2022/01/02 00:32:27;;;;;;;11.82;5.78;;;8.50;96.70;;;;;;10050218;28;20419;-64
2022/01/02 00:37:18;;;;;;;14.48;6.72;;;8.30;96.70;;;;;;10046919;28;20083;-65
2022/01/02 00:42:17;;;;;;;11.55;6.45;;;8.30;96.80;;;;;;10049650;28;20554;-64
2022/01/02 00:47:38;;;;;;;11.50;6.30;;;8.30;96.80;;;;;;10045758;28;20592;-64
2022/01/02 00:52:32;;;;;;;11.18;6.45;;;8.30;96.70;;;;;;10050706;28;20064;-64
2022/01/02 00:57:36;;;;;;;12.48;6.53;;;8.40;96.60;;;;;;10053396;28;20080;-64
2022/01/02 01:02:37;;;;;;;11.70;6.50;;;8.30;96.60;;;;;;10049118;28;20056;-64
2022/01/02 01:07:30;;;;;;;11.52;6.47;;;8.20;96.60;;;;;;10050869;28;20480;-64
2022/01/02 01:12:21;;;;;;;11.65;5.50;;;8.20;96.70;;;;;;10052643;28;20070;-64
2022/01/02 01:17:14;;;;;;;9.27;4.88;;;8.20;96.60;;;;;;10054760;28;20548;-64
2022/01/02 01:22:05;;;;;;;10.95;5.88;;;8.20;96.70;;;;;;10056084;28;20088;-64
2022/01/02 01:26:56;;;;;;;13.30;6.20;;;8.10;96.60;;;;;;10053791;28;20089;-65
2022/01/02 01:31:47;;;;;;;11.80;5.85;;;8.10;96.60;;;;;;10036409;28;20057;-66
2022/01/02 01:36:38;;;;;;;11.65;7.00;;;8.10;96.60;;;;;;10053604;28;20086;-65
2022/01/02 01:41:34;;;;;;;12.23;5.63;;;8.10;96.50;;;;;;10051894;28;20022;-68
2022/01/02 01:46:24;;;;;;;9.50;5.35;;;8.00;96.50;;;;;;10048081;28;20558;-65
2022/01/02 01:51:15;;;;;;;12.60;5.95;;;7.90;96.50;;;;;;10052639;28;20026;-66
2022/01/02 01:56:05;;;;;;;10.70;5.43;;;7.90;96.60;;;;;;10053410;28;20248;-64
2022/01/02 02:00:56;;;;;;;10.60;5.97;;;8.00;96.60;;;;;;10051081;28;20163;-64
2022/01/02 02:05:47;;;;;;;9.65;5.32;;;8.00;96.70;;;;;;10051370;28;20499;-65
2022/01/02 02:10:45;;;;;;;11.75;5.95;;;8.10;96.60;;;;;;10032288;28;20096;-65
2022/01/02 02:15:36;;;;;;;15.65;7.00;;;8.00;96.70;;;;;;10047095;28;20124;-63
2022/01/02 02:20:26;;;;;;;10.80;5.85;;;8.00;96.60;;;;;;10057797;28;20512;-65
2022/01/02 02:25:29;;;;;;;12.35;6.47;;;7.90;96.60;;;;;;10054218;28;20520;-64
2022/01/02 02:30:20;;;;;;;10.77;6.95;;;8.00;96.70;;;;;;10049725;28;20095;-63
2022/01/02 02:35:11;;;;;;;13.13;6.80;;;8.00;96.50;;;;;;10059174;28;20053;-63
2022/01/02 02:40:02;;;;;;;14.65;6.13;;;8.00;96.50;;;;;;10046495;28;20017;-64
2022/01/02 02:44:59;;;;;;;13.27;7.35;;;7.90;96.60;;;;;;10053848;28;20103;-64
2022/01/02 02:49:50;;;;;;;11.35;5.97;;;7.90;96.50;;;;;;10036821;28;20573;-63
2022/01/02 02:54:42;;;;;;;10.35;5.75;;;7.90;96.50;;;;;;10042320;28;20073;-62
2022/01/02 02:59:35;;;;;;;10.75;7.18;;;8.00;96.40;;;;;;10057178;28;20076;-63
2022/01/02 03:04:26;;;;;;;12.18;5.55;;;7.90;96.40;;;;;;10054001;28;20073;-66
2022/01/02 03:09:31;;;;;;;10.25;5.32;;;7.90;96.40;;;;;;10055850;28;20359;-64
2022/01/02 03:14:22;;;;;;;10.05;5.72;;;7.80;96.40;;;;;;10045876;28;20033;-64
2022/01/02 03:19:12;;;;;;;12.38;5.55;;;7.80;96.50;;;;;;10057741;28;20021;-64
2022/01/02 03:24:03;;;;;;;11.15;6.20;;;7.90;96.40;;;;;;10037854;28;20313;-65
2022/01/02 03:28:54;;;;;;;11.07;6.88;;;7.90;96.40;;;;;;10045424;28;20025;-64
2022/01/02 03:33:45;;;;;;;7.25;4.90;;;7.90;96.40;;;;;;10055544;28;20099;-63
2022/01/02 03:38:36;;;;;;;10.60;5.32;;;7.90;96.40;;;;;;10049788;28;20033;-64
2022/01/02 03:43:27;;;;;;;11.52;5.15;;;7.90;96.30;;;;;;10049123;28;20037;-64
2022/01/02 03:48:17;;;;;;;9.95;4.82;;;8.00;96.30;;;;;;10045479;28;20504;-64
2022/01/02 03:53:08;;;;;;;11.57;5.28;;;8.00;96.30;;;;;;10031233;28;20138;-64
2022/01/02 03:57:59;;;;;;;8.88;5.63;;;8.10;96.30;;;;;;10050540;28;20045;-65
2022/01/02 04:02:49;;;;;;;9.43;5.00;;;8.10;96.20;;;;;;10051309;28;20041;-65
2022/01/02 04:07:41;;;;;;;11.10;5.32;;;8.10;96.20;;;;;;10043436;28;20444;-66
2022/01/02 04:12:33;;;;;;;8.65;5.13;;;8.10;96.10;;;;;;10045855;28;20075;-64
2022/01/02 04:17:23;;;;;;;7.88;5.00;;;8.10;96.10;;;;;;10051035;28;20069;-64
2022/01/02 04:22:14;;;;;;;6.40;4.32;;;8.00;96.10;;;;;;10049534;28;20579;-65
2022/01/02 04:27:05;;;;;;;8.55;5.05;;;8.00;96.20;;;;;;10056457;28;20057;-68
2022/01/02 04:31:56;;;;;;;10.20;5.18;;;7.90;96.30;;;;;;10049967;28;20029;-63
2022/01/02 04:36:46;;;;;;;11.82;5.68;;;7.90;96.20;;;;;;10052131;28;20037;-63
2022/01/02 04:41:37;;;;;;;10.55;5.85;;;8.00;96.10;;;;;;10054613;28;20571;-64
2022/01/02 04:46:28;;;;;;;8.32;5.50;;;8.00;96.10;;;;;;10052033;28;20392;-63
2022/01/02 04:51:18;;;;;;;10.38;5.35;;;8.00;96.20;;;;;;10038884;28;20021;-62
2022/01/02 04:56:09;;;;;;;8.85;4.88;;;7.90;96.10;;;;;;10051880;28;20083;-63
2022/01/02 05:01:00;;;;;;;7.63;4.88;;;7.90;96.10;;;;;;10054524;28;20022;-62
2022/01/02 05:05:50;;;;;;;11.60;5.80;;;7.90;96.10;;;;;;10056813;28;20125;-65
2022/01/02 05:10:41;;;;;;;8.75;4.82;;;7.90;96.10;;;;;;10058665;28;20564;-63
2022/01/02 05:15:32;;;;;;;8.32;4.30;;;7.90;96.00;;;;;;10061280;28;20049;-63
2022/01/02 05:20:22;;;;;;;9.55;4.68;;;7.70;96.10;;;;;;10047765;28;20032;-64
2022/01/02 05:25:13;;;;;;;7.25;4.43;;;7.80;96.20;;;;;;10053313;28;20034;-63
2022/01/02 05:30:04;;;;;;;10.23;5.82;;;7.80;96.20;;;;;;10048295;28;20200;-63
2022/01/02 05:34:55;;;;;;;10.43;5.32;;;7.80;96.10;;;;;;10030062;28;20072;-63
2022/01/02 05:39:45;;;;;;;11.52;4.78;;;7.80;96.10;;;;;;10048902;28;20168;-63
2022/01/02 05:44:36;;;;;;;7.80;5.28;;;7.80;96.00;;;;;;10052901;28;20503;-64
2022/01/02 05:49:27;;;;;;;9.90;5.22;;;7.90;96.00;;;;;;10052019;28;20049;-63
2022/01/02 05:54:17;;;;;;;10.68;5.30;;;7.80;96.00;;;;;;10035113;28;20478;-62
2022/01/02 05:59:08;;;;;;;11.27;5.32;;;7.80;96.00;;;;;;10047965;28;20060;-62
2022/01/02 06:04:00;;;;;;;10.05;4.78;;;7.70;96.00;;;;;;10053237;28;20117;-65
2022/01/02 06:08:50;;;;;;;10.07;5.63;;;7.70;96.10;;;;;;10048955;28;20418;-69
2022/01/02 06:13:42;;;;;;;10.63;4.65;;;7.60;96.10;;;;;;10061759;28;20116;-64
2022/01/02 06:18:33;;;;;;;8.27;5.25;;;7.50;96.10;;;;;;10054299;28;20036;-63
2022/01/02 06:23:24;;;;;;;11.75;5.43;;;7.60;96.10;;;;;;10050851;28;20025;-64
2022/01/02 06:28:14;;;;;;;8.23;5.43;;;7.70;95.90;;;;;;10050482;28;20092;-65
2022/01/02 06:33:05;;;;;;;10.23;4.45;;;7.70;95.90;;;;;;10049107;28;20023;-63
2022/01/02 06:37:56;;;;;;;7.30;4.80;;;7.70;95.90;;;;;;10053333;28;20122;-64
2022/01/02 06:42:47;;;;;;;8.25;4.95;;;7.70;95.90;;;;;;10048498;28;20539;-63
2022/01/02 06:47:38;;;;;;;9.27;5.05;;;7.80;96.00;;;;;;10052292;28;20121;-63
2022/01/02 06:52:28;;;;;;;9.10;5.65;;;7.80;95.90;;;;;;10048498;28;20487;-63
2022/01/02 06:57:21;;;;;;;7.72;5.00;;;7.80;95.90;;;;;;10045537;28;20120;-62
2022/01/02 07:02:12;;;;;;;10.10;5.35;;;7.80;95.80;;;;;;10052659;28;20065;-62
2022/01/02 07:07:03;;;;;;;13.63;5.47;;;7.80;95.80;;;;;;10051907;28;20032;-62
2022/01/02 07:11:53;;;;;;;8.82;5.15;;;7.80;95.80;;;;;;10052298;28;20725;-63
2022/01/02 07:16:44;;;;;;;8.77;4.95;;;7.70;95.90;;;;;;10054622;28;20041;-62
2022/01/02 07:21:35;;;;;;;11.55;6.93;;;7.70;95.80;;;;;;10051720;28;20108;-63
2022/01/02 07:26:25;;;;;;;9.38;4.45;;;7.60;95.90;;;;;;10048011;28;20025;-63
2022/01/02 07:31:16;;;;;;;9.60;4.47;;;7.70;96.00;;;;;;10059131;28;20060;-65
2022/01/02 07:36:07;;;;;;;6.95;4.75;;;7.70;96.00;;;;;;10047914;28;20476;-66
2022/01/02 07:40:58;;;;;;;12.93;5.60;;;7.90;95.90;;;;;;10045105;28;20544;-63
2022/01/02 07:45:49;;;;;;;10.45;4.88;;;7.80;95.90;;;;;;10047997;28;20022;-63
2022/01/02 07:50:40;;;;;;;10.43;5.50;;;7.90;96.00;;;;;;10032450;28;20211;-63
2022/01/02 07:55:30;;;;;;;7.45;4.43;;;7.90;95.90;;;;;;10052609;28;20041;-63
2022/01/02 08:00:21;;;;;;;7.03;4.15;;;8.10;95.90;;;;;;10050075;28;20583;-62
2022/01/02 08:05:12;;;;;;;9.65;4.70;;;8.10;95.80;;;;;;10049917;28;20021;-62
2022/01/02 08:10:04;;;;;;;11.02;4.38;;;8.30;95.70;;;;;;10056635;28;20030;-63
2022/01/02 08:14:55;;;;;;;7.82;4.70;;;8.40;95.70;;;;;;10047380;28;20042;-63
2022/01/02 08:19:45;;;;;;;7.82;5.65;;;8.40;95.70;;;;;;10046667;28;20444;-63
2022/01/02 08:24:36;;;;;;;8.32;4.68;;;8.40;95.70;;;;;;10045329;28;20025;-63
2022/01/02 08:29:26;;;;;;;10.15;5.80;;;8.40;95.80;;;;;;10047347;28;20041;-67
2022/01/02 08:34:17;;;;;;;9.20;4.28;;;8.50;95.70;;;;;;10045160;28;20037;-65
2022/01/02 08:39:08;;;;;;;8.23;4.38;;;8.40;95.80;;;;;;10054703;28;20035;-65
2022/01/02 08:43:58;;;;;;;6.72;4.05;;;8.40;95.70;;;;;;10049665;28;20024;-65
2022/01/02 08:48:49;;;;;;;8.05;4.80;;;8.50;95.80;;;;;;10048774;28;20483;-64
2022/01/02 08:53:40;;;;;;;6.32;3.60;;;8.50;95.60;;;;;;10041979;28;20026;-64
2022/01/02 08:58:31;;;;;;;6.90;4.10;;;8.60;95.60;;;;;;10027403;28;20054;-63
2022/01/02 09:03:21;;;;;;;5.70;4.07;;;8.70;95.50;;;;;;10049326;28;20116;-63
2022/01/02 09:08:12;;;;;;;6.88;3.90;;;8.70;95.40;;;;;;10040337;28;20163;-64
2022/01/02 09:13:03;;;;;;;8.45;3.53;;;8.80;95.40;;;;;;10052136;28;20030;-64
2022/01/02 09:17:54;;;;;;;5.25;3.35;;;8.80;95.30;;;;;;10050070;28;21467;-62
2022/01/02 09:22:46;;;;;;;5.30;2.88;;;8.80;95.20;;;;;;10054411;28;20025;-62
2022/01/02 09:27:39;;;;;;;10.20;3.80;;;8.70;95.20;;;;;;10052987;28;20578;-62
2022/01/02 09:32:29;;;;;;;5.70;3.97;;;8.70;95.30;;;;;;10054576;28;20025;-62
2022/01/02 09:37:20;;;;;;;6.65;3.45;;;8.80;95.20;;;;;;10052689;28;20192;-62
2022/01/02 09:42:12;;;;;;;3.85;3.22;;;8.70;95.10;;;;;;10046503;28;20025;-63
2022/01/02 09:47:04;;;;;;;6.55;3.83;;;8.80;95.10;;;;;;10039627;28;20057;-63
2022/01/02 09:51:54;;;;;;;8.27;3.60;;;8.80;95.00;;;;;;10034956;28;20034;-62
2022/01/02 09:56:45;;;;;;;8.85;3.70;;;8.90;95.00;;;;;;10053257;28;20045;-61
2022/01/02 10:01:37;;;;;;;7.32;3.65;;;8.90;94.90;;;;;;10051522;28;20064;-63
2022/01/02 10:06:42;;;;;;;4.95;3.00;;;9.00;94.80;;;;;;10054722;28;20037;-62
2022/01/02 10:11:33;;;;;;;6.40;3.28;;;8.90;94.90;;;;;;10050867;28;21032;-65
2022/01/02 10:16:32;;;;;;;8.02;3.42;;;9.00;94.80;;;;;;10048319;28;20152;-65
2022/01/02 10:21:37;;;;;;;7.30;3.65;;;9.00;94.80;;;;;;10051562;28;20087;-64
2022/01/02 10:26:28;;;;;;;6.55;3.72;;;9.10;94.70;;;;;;10049385;28;20052;-66
2022/01/02 10:31:19;;;;;;;6.63;4.18;;;9.10;94.60;;;;;;10048159;28;20034;-64
2022/01/02 10:36:09;;;;;;;5.40;3.10;;;9.10;94.60;;;;;;10056100;28;20037;-63
2022/01/02 10:41:00;;;;;;;5.40;3.13;;;9.10;94.50;;;;;;10065827;28;20032;-65
2022/01/02 10:45:51;;;;;;;7.45;3.83;;;9.10;94.50;;;;;;10065968;28;20068;-64
2022/01/02 10:51:24;;;;;;;9.15;5.65;;;9.10;94.50;;;;;;10069499;28;20029;-64
2022/01/02 10:56:14;;;;;;;10.07;4.00;;;9.10;94.30;;;;;;9882359;28;20047;-65
2022/01/02 11:01:06;;;;;;;5.70;3.20;;;9.10;94.40;;;;;;10005422;28;20481;-64
2022/01/02 11:06:05;;;;;;;5.10;3.30;;;9.20;94.30;;;;;;10050156;28;20119;-64
2022/01/02 11:10:57;;;;;;;5.95;3.53;;;9.30;94.30;;;;;;10049297;28;20495;-64
2022/01/02 11:15:48;;;;;;;5.18;2.75;;;9.50;94.20;;;;;;10051031;28;20045;-64
2022/01/02 11:20:40;;;;;;;6.28;3.28;;;9.70;94.00;;;;;;10048903;28;20129;-65
2022/01/02 11:25:50;;;;;;;5.43;2.70;;;9.90;93.90;;;;;;10048054;28;20586;-62
2022/01/02 11:30:41;;;;;;;3.92;2.08;;;10.10;93.70;;;;;;10050920;28;20480;-64
2022/01/02 11:35:35;;;;;;;4.10;2.70;;;10.20;93.50;;;;;;10046668;28;20040;-63
2022/01/02 11:40:47;;;;;;;3.63;2.17;;;10.40;93.40;;;;;;10050660;28;20134;-63
2022/01/02 11:45:39;;;;;;;6.53;3.00;;;10.60;93.20;;;;;;10046505;28;20482;-63
2022/01/02 11:50:30;;;;;;;3.08;2.28;;;10.80;93.00;;;;;;10047522;28;20117;-64
2022/01/02 11:55:21;;;;;;;4.03;2.90;;;11.00;92.80;;;;;;10049640;28;20116;-65
2022/01/02 12:00:31;;;;;;;3.47;2.17;;;11.10;92.70;;;;;;10025092;28;20049;-63
2022/01/02 12:05:21;;;;;;;4.07;2.38;;;11.10;92.50;;;;;;10036491;28;20033;-64
2022/01/02 12:10:21;;;;;;;3.38;2.28;;;11.20;92.30;;;;;;10052205;28;20056;-66
2022/01/02 12:15:12;;;;;;;3.00;1.80;;;11.20;92.30;;;;;;10051204;28;20064;-62
2022/01/02 12:20:05;;;;;;;3.15;1.95;;;11.30;92.20;;;;;;10050898;28;20050;-63
2022/01/02 12:24:56;;;;;;;7.90;1.98;;;11.40;92.00;;;;;;10051390;28;20202;-64
2022/01/02 12:29:46;;;;;;;2.58;1.65;;;11.50;91.80;;;;;;10045579;28;20025;-65
2022/01/02 12:34:37;;;;;;;4.70;2.33;;;11.70;91.60;;;;;;10046427;28;20033;-63
2022/01/02 12:39:32;;;;;;;4.20;1.50;;;11.70;91.50;;;;;;10045094;28;20024;-63
2022/01/02 12:44:25;;;;;;;2.20;1.67;;;12.00;91.20;;;;;;10049451;28;20030;-63
2022/01/02 12:49:20;;;;;;;4.72;1.88;;;12.40;90.90;;;;;;10056612;28;20306;-63
2022/01/02 12:54:19;;;;;;;1.63;1.35;;;12.80;90.30;;;;;;10056893;28;20057;-63
2022/01/02 12:59:25;;;;;;;1.83;1.40;;;13.00;90.10;;;;;;10055862;28;20045;-63
2022/01/02 13:04:17;;;;;;;3.67;1.40;;;13.00;89.60;;;;;;10060126;28;20053;-64
2022/01/02 13:09:08;;;;;;;2.30;1.30;;;13.00;89.30;;;;;;10051815;28;20041;-62
2022/01/02 13:13:58;;;;;;;2.08;1.23;;;12.90;89.60;;;;;;10057216;28;20119;-62
2022/01/02 13:18:49;;;;;;;3.40;1.30;;;12.80;89.40;;;;;;10047245;28;20087;-64
2022/01/02 13:23:40;;;;;;;2.00;1.50;;;13.00;88.90;;;;;;10031174;28;20045;-63
2022/01/02 13:28:31;;;;;;;3.70;1.60;;;13.00;88.70;;;;;;10052934;28;20065;-61
2022/01/02 13:33:26;;;;;;;4.03;2.72;;;13.00;88.00;;;;;;10047288;28;20025;-63
2022/01/02 13:38:17;;;;;;;3.00;1.80;;;13.00;87.60;;;;;;10054018;28;20026;-63
2022/01/02 13:43:12;;;;;;;3.42;2.55;;;13.00;87.50;;;;;;10050831;28;20037;-62
2022/01/02 13:48:26;;;;;;;3.63;1.92;;;13.00;87.50;;;;;;10051491;28;20040;-62
2022/01/02 13:53:19;;;;;;;1.83;1.42;;;13.10;86.20;;;;;;10062587;28;20366;-62
2022/01/02 13:58:26;;;;;;;3.22;1.60;;;13.20;87.10;;;;;;10069533;28;20060;-62
2022/01/02 14:03:36;;;;;;;2.72;1.55;;;13.30;86.80;;;;;;10039888;28;20025;-60
2022/01/02 14:08:27;;;;;;;4.63;1.70;;;13.30;86.80;;;;;;10074373;28;20033;-62
2022/01/02 14:13:17;;;;;;;5.57;1.77;;;13.30;87.00;;;;;;10068873;28;20336;-61
2022/01/02 14:18:08;;;;;;;3.85;1.92;;;13.30;87.20;;;;;;10068008;28;20041;-60
2022/01/02 14:23:01;;;;;;;2.47;1.35;;;13.20;87.30;;;;;;10061026;28;20049;-61
2022/01/02 14:27:53;;;;;;;3.70;1.70;;;13.10;87.30;;;;;;10042010;28;20040;-62
2022/01/02 14:32:44;;;;;;;2.53;1.70;;;13.10;87.20;;;;;;10058132;28;20109;-60
2022/01/02 14:37:35;;;;;;;3.33;2.03;;;13.10;87.20;;;;;;10043857;28;20045;-60
2022/01/02 14:42:26;;;;;;;1.92;1.30;;;13.10;87.20;;;;;;10043396;28;20108;-60
2022/01/02 14:47:16;;;;;;;4.82;1.83;;;13.10;87.00;;;;;;10054318;28;20021;-60
2022/01/02 14:52:07;;;;;;;3.88;1.73;;;13.10;87.10;;;;;;10045703;28;20021;-62
2022/01/02 14:57:01;;;;;;;4.22;1.80;;;13.10;87.10;;;;;;10049642;28;20053;-61
2022/01/02 15:01:52;;;;;;;3.95;1.83;;;13.00;87.20;;;;;;10041290;28;20026;-65
2022/01/02 15:06:44;;;;;;;2.75;1.48;;;13.00;87.40;;;;;;10045392;28;20050;-64
2022/01/02 15:11:34;;;;;;;2.78;1.65;;;13.10;87.40;;;;;;10048490;28;20025;-65
2022/01/02 15:16:26;;;;;;;3.63;1.88;;;13.00;87.20;;;;;;10046330;28;20030;-66
2022/01/02 15:21:16;;;;;;;3.47;2.00;;;13.00;87.40;;;;;;10060229;28;20037;-64
2022/01/02 15:26:08;;;;;;;2.20;1.70;;;12.90;87.40;;;;;;10054629;28;20029;-64
2022/01/02 15:30:58;;;;;;;4.50;1.60;;;12.90;87.60;;;;;;10030672;28;20510;-65
2022/01/02 15:35:49;;;;;;;3.00;2.00;;;12.90;87.80;;;;;;10045463;28;20029;-63
2022/01/02 15:40:40;;;;;;;2.42;1.83;;;12.90;87.90;;;;;;10049636;28;20035;-66
2022/01/02 15:45:31;;;;;;;4.53;1.77;;;12.90;87.90;;;;;;10044884;28;20049;-67
2022/01/02 15:50:23;;;;;;;4.57;1.70;;;12.80;88.10;;;;;;10044911;28;20036;-64
2022/01/02 15:55:14;;;;;;;3.53;1.67;;;12.80;88.00;;;;;;10049002;28;20083;-65
2022/01/02 16:00:08;;;;;;;3.00;1.80;;;12.60;88.20;;;;;;10046761;28;20504;-65
2022/01/02 16:04:59;;;;;;;3.25;1.52;;;12.70;88.30;;;;;;10048609;28;20515;-66
2022/01/02 16:09:50;;;;;;;3.00;1.67;;;12.60;88.30;;;;;;10048295;28;20025;-66
2022/01/02 16:14:41;;;;;;;3.88;2.05;;;12.60;88.30;;;;;;10048328;28;20099;-66
2022/01/02 16:19:32;;;;;;;3.33;1.73;;;12.50;88.50;;;;;;10030238;28;20105;-67
2022/01/02 16:24:24;;;;;;;3.28;1.58;;;12.30;88.70;;;;;;10053072;28;20259;-66
2022/01/02 16:29:15;;;;;;;4.30;2.20;;;12.10;88.90;;;;;;10053493;28;20199;-68
2022/01/02 16:34:06;;;;;;;4.45;2.47;;;12.10;89.10;;;;;;10056447;28;20176;-66
2022/01/02 16:38:57;;;;;;;3.45;2.00;;;12.00;89.30;;;;;;10067930;28;20216;-65
2022/01/02 16:43:48;;;;;;;5.22;2.70;;;11.90;89.40;;;;;;10068034;28;20065;-65
2022/01/02 16:48:44;;;;;;;4.95;2.75;;;11.80;89.50;;;;;;10060292;28;20038;-62
2022/01/02 16:53:35;;;;;;;;;;;11.70;89.70;;;;;;10066052;28;20487;-60
2022/01/02 16:58:25;;;;;;;5.30;2.80;;;11.60;89.90;;;;;;10053417;28;20081;-63
2022/01/02 17:03:16;;;;;;;5.75;2.10;;;11.60;89.90;;;;;;10049345;28;20034;-64
2022/01/02 17:08:07;;;;;;;4.90;3.00;;;11.60;89.90;;;;;;10051594;28;20101;-62
2022/01/02 17:12:58;;;;;;;4.28;2.30;;;11.50;89.90;;;;;;10060708;28;20078;-62
2022/01/02 17:17:49;;;;;;;4.18;2.75;;;11.40;90.00;;;;;;10050117;28;20048;-63
2022/01/02 17:22:40;;;;;;;6.60;3.08;;;11.40;90.10;;;;;;10056865;28;20029;-62
2022/01/02 17:27:32;;;;;;;8.10;3.53;;;11.40;90.20;;;;;;10053223;28;20364;-62
2022/01/02 17:32:23;;;;;;;4.95;2.95;;;11.40;90.20;;;;;;10055496;28;20029;-62
2022/01/02 17:37:14;;;;;;;6.88;3.22;;;11.40;90.20;;;;;;10054658;28;20342;-61
2022/01/02 17:42:05;;;;;;;2.75;2.33;;;11.40;90.30;;;;;;10050060;28;20478;-62
2022/01/02 17:46:56;;;;;;;3.90;2.03;;;11.60;90.30;;;;;;10050102;28;20034;-62
2022/01/02 17:51:48;;;;;;;4.68;2.25;;;12.10;90.20;;;;;;10054501;28;20303;-62
2022/01/02 17:56:39;;;;;;;2.13;1.35;;;12.60;90.00;;;;;;10050812;28;20042;-63
2022/01/02 18:01:30;;;;;;;2.20;1.10;;;13.10;89.30;;;;;;10052036;28;20021;-61
2022/01/02 18:06:22;;;;;;;3.13;1.42;;;13.30;89.00;;;;;;10051366;28;20523;-64
2022/01/02 18:11:12;;;;;;;2.67;1.55;;;13.30;89.20;;;;;;10050213;28;20105;-65
2022/01/02 18:16:04;;;;;;;2.63;1.35;;;13.30;89.60;;;;;;10047118;28;20053;-62
2022/01/02 18:20:55;;;;;;;2.92;1.65;;;13.40;89.50;;;;;;10034256;28;20029;-61
2022/01/02 18:25:46;;;;;;;3.17;1.77;;;13.40;89.50;;;;;;10063509;28;20064;-64
2022/01/02 18:30:37;;;;;;;2.28;1.52;;;13.40;89.10;;;;;;10057583;28;20408;-68
2022/01/02 18:35:28;;;;;;;2.40;0.90;;;13.50;89.30;;;;;;10049133;28;20462;-62
2022/01/02 18:40:18;;;;;;;2.78;1.20;;;13.70;88.60;;;;;;10059357;28;20156;-63
2022/01/02 18:45:10;;;;;;;4.32;1.63;;;13.70;88.60;;;;;;10051855;28;20026;-64
2022/01/02 18:50:01;;;;;;;2.00;1.27;;;13.60;88.70;;;;;;10041927;28;20025;-58
2022/01/02 18:54:52;;;;;;;3.75;1.40;;;13.40;89.20;;;;;;10040949;28;20045;-63
2022/01/02 18:59:43;;;;;;;4.07;1.75;;;13.30;89.40;;;;;;10055208;28;20056;-61
2022/01/02 19:04:33;;;;;;;2.78;1.90;;;13.20;89.40;;;;;;10036019;28;20142;-60
2022/01/02 19:09:24;;;;;;;3.58;1.60;;;13.30;89.00;;;;;;10059339;28;20034;-66
2022/01/02 19:14:15;;;;;;;3.38;1.30;;;13.50;88.50;;;;;;10049264;28;20064;-63
2022/01/02 19:19:07;;;;;;;2.65;1.42;;;13.60;88.40;;;;;;10058356;28;20484;-60
2022/01/02 19:23:58;;;;;;;4.28;1.40;;;13.70;88.10;;;;;;10041378;28;20022;-61
2022/01/02 19:28:49;;;;;;;4.25;1.10;;;13.70;87.70;;;;;;10060596;28;21018;-61
2022/01/02 19:33:39;;;;;;;2.40;1.15;;;13.80;87.70;;;;;;10054614;28;20025;-61
2022/01/02 19:38:30;;;;;;;3.60;1.20;;;13.80;87.40;;;;;;10054754;28;20033;-61
2022/01/02 19:43:21;;;;;;;2.47;0.90;;;13.70;87.40;;;;;;10049654;28;20602;-61
2022/01/02 19:48:11;;;;;;;7.78;1.65;;;13.80;86.80;;;;;;10054037;28;20029;-59
2022/01/02 19:53:02;;;;;;;3.25;1.25;;;14.00;85.80;;;;;;10052081;28;20018;-59
2022/01/02 19:57:53;;;;;;;2.75;1.13;;;14.10;85.20;;;;;;10056688;28;20052;-61
2022/01/02 20:02:46;;;;;;;2.20;1.00;;;14.20;84.80;;;;;;10053472;28;20033;-60
2022/01/02 20:07:37;;;;;;;2.35;1.05;;;14.10;85.00;;;;;;10049828;28;20096;-60
2022/01/02 20:12:27;;;;;;;3.22;1.08;;;14.00;85.20;;;;;;10051146;28;20048;-62
2022/01/02 20:17:18;;;;;;;1.48;0.88;;;14.00;85.20;;;;;;10055368;28;20051;-60
2022/01/02 20:22:09;;;;;;;2.55;1.25;;;14.10;85.20;;;;;;10050822;28;20032;-64
2022/01/02 20:27:00;;;;;;;1.23;0.98;;;14.00;85.20;;;;;;10036489;28;20041;-60
2022/01/02 20:31:51;;;;;;;1.50;1.23;;;14.00;85.00;;;;;;10051420;28;20026;-60
2022/01/02 20:36:41;;;;;;;3.22;0.95;;;14.00;85.20;;;;;;10050115;28;20401;-60
2022/01/02 20:41:33;;;;;;;1.75;0.75;;;14.00;85.40;;;;;;10045182;28;20129;-60
2022/01/02 20:46:23;;;;;;;4.18;0.95;;;14.00;85.10;;;;;;10052511;28;20327;-59
2022/01/02 20:51:15;;;;;;;2.60;1.48;;;14.00;85.00;;;;;;10051595;28;20383;-60
2022/01/02 20:56:05;;;;;;;2.47;0.85;;;14.00;85.10;;;;;;10050057;28;20131;-62
2022/01/02 21:00:56;;;;;;;7.07;1.30;;;14.00;85.10;;;;;;10044225;28;20026;-63
2022/01/02 21:05:49;;;;;;;1.83;0.77;;;14.10;85.10;;;;;;10036021;28;20038;-60
2022/01/02 21:10:42;;;;;;;2.58;1.17;;;14.10;85.00;;;;;;10059152;28;20037;-60
2022/01/02 21:15:32;;;;;;;3.65;1.20;;;14.10;84.70;;;;;;10049733;28;21126;-60
2022/01/02 21:20:27;;;;;;;1.70;0.75;;;14.10;84.90;;;;;;10054979;28;20503;-63
2022/01/02 21:25:18;;;;;;;3.83;1.17;;;14.10;85.00;;;;;;10059719;28;20320;-60
2022/01/02 21:30:11;;;;;;;7.63;1.60;;;14.10;85.20;;;;;;10052852;28;20033;-63
2022/01/02 21:35:03;;;;;;;2.03;0.70;;;14.10;85.00;;;;;;10048666;28;20098;-60
2022/01/02 21:39:54;;;;;;;3.95;1.17;;;14.10;85.00;;;;;;10048513;28;20144;-61
2022/01/02 21:44:46;;;;;;;3.50;0.95;;;14.00;84.80;;;;;;10058376;28;20561;-60
2022/01/02 21:49:37;;;;;;;1.60;1.13;;;14.00;85.10;;;;;;10048296;28;20033;-60
2022/01/02 21:54:28;;;;;;;3.22;1.30;;;14.00;85.10;;;;;;10049793;28;20480;-60
2022/01/02 21:59:18;;;;;;;1.23;0.75;;;14.00;85.20;;;;;;10049857;28;20128;-60
2022/01/02 22:04:09;;;;;;;3.78;1.08;;;14.00;85.30;;;;;;10065106;28;20431;-61
2022/01/02 22:09:00;;;;;;;10.93;1.25;;;13.90;85.40;;;;;;10077204;28;20060;-62
2022/01/02 22:13:51;;;;;;;3.80;1.23;;;14.00;86.10;;;;;;10059459;28;20021;-60
2022/01/02 22:18:42;;;;;;;5.50;1.10;;;14.00;85.70;;;;;;10054731;28;20095;-60
2022/01/02 22:23:35;;;;;;;2.47;0.82;;;14.00;85.60;;;;;;10039639;28;20032;-60
2022/01/02 22:28:27;;;;;;;3.45;1.00;;;14.00;85.70;;;;;;10045157;28;20034;-61
2022/01/02 22:33:20;;;;;;;1.45;0.98;;;14.00;85.80;;;;;;10044852;28;20037;-61
2022/01/02 22:38:13;;;;;;;0.90;0.57;;;14.00;85.80;;;;;;10032881;28;20183;-60
2022/01/02 22:43:04;;;;;;;1.60;1.02;;;14.00;85.60;;;;;;10055560;28;20356;-60
2022/01/02 22:47:56;;;;;;;2.58;1.17;;;14.00;85.70;;;;;;10050849;28;20022;-61
2022/01/02 22:52:47;;;;;;;3.45;1.10;;;14.00;85.70;;;;;;10045407;28;20120;-61
2022/01/02 22:57:37;;;;;;;3.22;1.20;;;14.00;85.70;;;;;;10046661;28;20343;-60
2022/01/02 23:02:29;;;;;;;0.73;0.50;;;14.00;85.80;;;;;;10044926;28;20017;-59
2022/01/02 23:07:21;;;;;;;1.42;0.77;;;14.00;85.80;;;;;;10049326;28;20029;-63
2022/01/02 23:12:12;;;;;;;3.55;0.93;;;13.90;86.00;;;;;;10042189;28;20025;-60
2022/01/02 23:17:05;;;;;;;3.95;1.83;;;13.80;86.10;;;;;;10047209;28;20033;-59
2022/01/02 23:21:56;;;;;;;2.05;1.33;;;13.90;86.10;;;;;;10049090;28;20026;-58
2022/01/02 23:26:47;;;;;;;3.10;0.90;;;13.90;86.00;;;;;;10046754;28;20041;-62
2022/01/02 23:31:38;;;;;;;3.45;1.20;;;13.90;85.90;;;;;;10044636;28;20037;-58
2022/01/02 23:36:29;;;;;;;5.05;1.45;;;13.90;85.90;;;;;;10047412;28;20045;-60
2022/01/02 23:41:22;;;;;;;7.47;1.85;;;13.90;85.90;;;;;;10044562;28;20033;-61
2022/01/02 23:46:17;;;;;;;2.85;0.90;;;13.90;85.80;;;;;;10044950;28;20037;-59
2022/01/02 23:51:10;;;;;;;3.63;1.20;;;13.90;85.90;;;;;;10043979;28;21346;-59
2022/01/02 23:56:02;;;;;;;5.75;1.83;;;13.90;85.90;;;;;;10045573;28;20157;-60
